TAF and METAR

METAR for Brno-Tuřany Airport

LKTB 192050Z 10004KT 0800 R27/1700D FG NSC 10/09 Q1013 RMK REG QNH 1009
Report created 19. okt 22:50
wind 4 knots from E (100°) visibility 800 meters Runway 27 visual range is 1700 meters and the tendency is decreasing visibility fog No significant clouds. Temperature 10° with dewpoint at 9° (Humidity 93.50%) Pressure 1013 hPa

TAF for Brno-Tuřany Airport

TAF AMD LKTB 191910Z 1919/2100 VRB02KT 1200 MIFG NSC TEMPO 1919/2008 0700 FG BKN003 PROB30 TEMPO 1919/2007 0200 FG BKN001 BECMG 2008/2010 9999 SCT026
Report created 19. okt 21:10

between 19. okt 21:00 - 21. okt 02:00

wind 2 knots from various directions visibility 1200 meters shallow fog No significant clouds.

temporarily between 19. okt 21:00 - 20. okt 10:00

visibility 700 meters fog broken clouds (~75% cover) at 300 feet

probably (~30%) temporarily between 19. okt 21:00 - 20. okt 09:00

visibility 200 meters fog broken clouds (~75% cover) at 100 feet

becoming between 20. okt 10:00 - 20. okt 12:00

visibility > 10km scattered clouds (~50% cover) at 2600 feet
Brno-Tuřany Airport in Czech Republic at 246m

Latest 5 airports